Time;durP1;ratioP1;P1;durP2;ratioP2;P2;SDS_P1;SDS_P2;PMS_P1;PMS_P2;Temp;Humidity;BMP_temperature;BMP_pressure;BME280_temperature;BME280_humidity;BME280_pressure;Samples;Min_cycle;Max_cycle;Signal;HPM_P1;HPM_P2
2022/06/07 19:35:31;;;;;;;1.88;0.60;;;;;;;18.70;83.17;100542.00;7420646;19;20409;-79
2022/06/07 19:37:58;;;;;;;2.15;0.60;;;;;;;18.73;82.99;100536.25;7421500;19;20275;-79
2022/06/07 19:40:26;;;;;;;2.35;0.50;;;;;;;18.78;82.87;100525.78;7421361;19;20018;-78
2022/06/07 19:42:53;;;;;;;4.80;0.90;;;;;;;18.87;82.79;100534.34;7421393;19;20006;-78
2022/06/07 19:45:26;;;;;;;4.45;0.82;;;;;;;18.94;82.58;100533.28;7418307;19;20014;-79
2022/06/07 19:47:55;;;;;;;2.05;0.80;;;;;;;19.00;81.42;100544.91;7421238;19;20040;-76
2022/06/07 19:50:23;;;;;;;4.93;0.40;;;;;;;19.06;80.90;100544.06;7419578;19;20466;-80
2022/06/07 19:52:50;;;;;;;1.70;0.32;;;;;;;19.07;78.20;100545.69;7419017;19;20122;-79
2022/06/07 19:55:20;;;;;;;4.57;0.40;;;;;;;19.08;78.31;100540.16;7420706;19;20534;-78
2022/06/07 19:57:50;;;;;;;;;;;;;;;19.09;78.31;100522.31;7417443;19;20006;-77
2022/06/07 20:00:22;;;;;;;15.18;5.38;;;;;;;19.07;78.96;100527.84;7419712;19;20301;-78
2022/06/07 20:02:50;;;;;;;4.10;1.70;;;;;;;19.08;79.38;100524.16;7416940;19;20021;-77
2022/06/07 20:05:19;;;;;;;3.10;0.60;;;;;;;19.11;79.96;100531.72;7421590;19;20014;-78
2022/06/07 20:07:46;;;;;;;6.20;2.35;;;;;;;19.14;79.84;100517.13;7419269;19;20457;-79
2022/06/07 20:10:16;;;;;;;2.78;0.70;;;;;;;19.13;78.96;100524.31;7417220;19;20014;-77
2022/06/07 20:12:43;;;;;;;2.17;0.50;;;;;;;19.16;79.07;100521.22;7415638;19;20426;-78
2022/06/07 20:15:10;;;;;;;4.90;0.50;;;;;;;19.18;78.25;100526.34;7419302;19;20010;-77
2022/06/07 20:17:38;;;;;;;1.08;0.65;;;;;;;19.20;78.62;100529.59;7418507;19;20396;-77
2022/06/07 20:20:07;;;;;;;1.60;0.68;;;;;;;19.22;78.40;100528.34;7418725;19;20014;-77
2022/06/07 20:22:37;;;;;;;1.13;0.30;;;;;;;19.20;77.85;100532.25;7417439;19;20014;-78
2022/06/07 20:25:08;;;;;;;1.15;0.43;;;;;;;19.17;77.25;100522.84;7418720;19;20090;-78
2022/06/07 20:27:36;;;;;;;2.10;0.43;;;;;;;19.15;77.02;100534.75;7413447;19;20553;-77
2022/06/07 20:30:06;;;;;;;1.33;0.50;;;;;;;19.09;77.69;100539.13;7416552;19;20454;-78
2022/06/07 20:32:34;;;;;;;1.48;0.30;;;;;;;19.05;77.34;100531.75;7411751;19;20352;-77
2022/06/07 20:35:02;;;;;;;1.95;0.40;;;;;;;19.00;78.16;100531.56;7416101;19;20034;-77
2022/06/07 20:37:29;;;;;;;2.60;0.60;;;;;;;18.98;78.30;100526.47;7416589;19;20074;-78
2022/06/07 20:39:57;;;;;;;0.95;0.38;;;;;;;18.96;78.27;100531.19;7413264;19;20014;-78
2022/06/07 20:42:44;;;;;;;2.15;0.50;;;;;;;18.94;78.02;100535.94;7415316;19;20010;-78
2022/06/07 20:45:11;;;;;;;2.38;0.60;;;;;;;18.87;78.25;100526.34;7402229;19;20016;-77
2022/06/07 20:47:39;;;;;;;1.98;0.40;;;;;;;18.83;78.53;100525.94;7385187;19;20010;-78
2022/06/07 20:50:07;;;;;;;1.08;0.30;;;;;;;18.77;79.32;100529.47;7389482;19;20014;-78
2022/06/07 20:52:35;;;;;;;1.58;0.35;;;;;;;18.75;79.58;100535.00;7385855;19;20018;-78
2022/06/07 20:55:04;;;;;;;0.77;0.40;;;;;;;18.75;78.79;100531.53;7385050;19;20014;-77
2022/06/07 20:57:32;;;;;;;1.45;0.40;;;;;;;18.76;79.22;100520.66;7385523;19;20510;-78
2022/06/07 20:59:59;;;;;;;2.22;0.40;;;;;;;18.75;78.65;100521.69;7389248;19;20019;-78
2022/06/07 21:02:26;;;;;;;0.90;0.43;;;;;;;18.75;80.25;100521.69;7383867;19;20006;-78
2022/06/07 21:04:55;;;;;;;1.58;0.38;;;;;;;18.76;79.35;100522.50;7389540;19;20328;-78
2022/06/07 21:07:22;;;;;;;11.27;8.00;;;;;;;18.81;82.22;100520.00;7385647;19;20317;-77
2022/06/07 21:09:49;;;;;;;5.43;2.60;;;;;;;18.83;82.01;100509.13;7387661;19;20036;-78
2022/06/07 21:12:16;;;;;;;1.92;0.52;;;;;;;18.78;81.32;100518.59;7387748;19;20006;-77
2022/06/07 21:14:43;;;;;;;2.70;0.68;;;;;;;18.76;80.21;100517.97;7385130;19;20015;-77
2022/06/07 21:17:11;;;;;;;0.52;0.25;;;;;;;18.74;79.82;100505.91;7386928;19;20010;-78
2022/06/07 21:19:39;;;;;;;1.55;0.80;;;;;;;18.71;79.79;100506.31;7388261;19;20085;-78
2022/06/07 21:22:08;;;;;;;4.10;1.30;;;;;;;18.70;80.43;100502.84;7386726;19;20015;-78
2022/06/07 21:24:35;;;;;;;0.73;0.40;;;;;;;18.68;79.61;100504.09;7385699;19;20031;-78
2022/06/07 21:27:02;;;;;;;0.95;0.35;;;;;;;18.68;79.30;100507.59;7381952;19;20018;-78
2022/06/07 21:29:29;;;;;;;2.25;0.68;;;;;;;18.64;78.80;100497.56;7387848;19;20420;-78
2022/06/07 21:31:56;;;;;;;3.47;0.40;;;;;;;18.63;80.31;100501.25;7381176;19;20021;-78
2022/06/07 21:34:23;;;;;;;2.47;0.40;;;;;;;18.57;79.75;100494.94;7384552;19;20271;-78
2022/06/07 21:36:50;;;;;;;3.28;0.70;;;;;;;18.52;80.17;100491.22;7383632;19;20121;-78
2022/06/07 21:39:17;;;;;;;5.68;1.70;;;;;;;18.51;80.08;100498.41;7386058;19;20078;-78
2022/06/07 21:41:44;;;;;;;3.38;1.00;;;;;;;18.52;80.62;100486.72;7382760;19;20014;-77
2022/06/07 21:44:11;;;;;;;1.77;0.52;;;;;;;18.51;80.51;100481.59;7385652;19;20015;-78
2022/06/07 21:46:38;;;;;;;1.15;0.40;;;;;;;18.51;80.35;100479.75;7387010;19;20010;-79
2022/06/07 21:49:06;;;;;;;4.05;0.60;;;;;;;18.46;79.76;100484.91;7389008;19;20349;-78
2022/06/07 21:51:33;;;;;;;1.85;0.60;;;;;;;18.48;81.38;100482.84;7386207;19;19998;-77
2022/06/07 21:54:00;;;;;;;1.92;1.17;;;;;;;18.47;81.49;100483.88;7383508;19;20105;-80
2022/06/07 21:56:27;;;;;;;5.60;1.70;;;;;;;18.47;82.31;100483.06;7382914;19;20014;-78
2022/06/07 21:58:54;;;;;;;6.72;2.03;;;;;;;18.48;82.34;100474.03;7387251;19;20013;-78
2022/06/07 22:01:21;;;;;;;3.15;0.73;;;;;;;18.45;82.55;100471.78;7384836;19;20015;-78
2022/06/07 22:03:48;;;;;;;4.55;0.40;;;;;;;18.41;81.21;100468.72;7385325;19;20325;-78
2022/06/07 22:06:16;;;;;;;3.00;0.40;;;;;;;18.38;80.38;100470.00;7385632;19;20758;-78
2022/06/07 22:08:43;;;;;;;2.83;0.50;;;;;;;18.36;80.70;100468.56;7387534;19;20011;-77
2022/06/07 22:11:12;;;;;;;4.07;0.70;;;;;;;18.34;80.60;100468.75;7384206;19;20081;-78
2022/06/07 22:13:40;;;;;;;2.22;0.50;;;;;;;18.30;80.55;100462.22;7384618;19;20503;-78
2022/06/07 22:16:08;;;;;;;2.88;1.20;;;;;;;18.27;81.50;100456.50;7383153;19;20345;-79
2022/06/07 22:18:35;;;;;;;2.38;0.60;;;;;;;18.21;80.63;100460.84;7383974;19;20022;-78
2022/06/07 22:21:02;;;;;;;2.00;0.40;;;;;;;18.23;80.88;100449.97;7382981;19;20348;-77
2022/06/07 22:23:29;;;;;;;3.53;0.40;;;;;;;18.19;80.58;100441.56;7383221;19;20010;-77
2022/06/07 22:25:57;;;;;;;2.35;0.40;;;;;;;18.21;81.79;100436.88;7383426;19;20007;-77
2022/06/07 22:28:24;;;;;;;4.65;0.50;;;;;;;18.17;81.02;100438.31;7381922;19;20070;-77
2022/06/07 22:30:51;;;;;;;2.42;0.98;;;;;;;18.19;81.98;100438.09;7383454;19;20078;-79
2022/06/07 22:33:18;;;;;;;2.22;0.80;;;;;;;18.17;81.98;100427.69;7379252;19;20102;-78
2022/06/07 22:35:54;;;;;;;2.05;0.45;;;;;;;18.20;82.04;100426.41;7381080;19;20014;-78
2022/06/07 22:38:21;;;;;;;1.70;0.50;;;;;;;18.19;81.16;100424.78;7382708;19;20635;-77
2022/06/07 22:40:47;;;;;;;1.58;0.30;;;;;;;18.16;80.60;100419.88;7381863;19;20014;-77
2022/06/07 22:43:15;;;;;;;3.83;0.85;;;;;;;18.15;81.66;100420.91;7381370;19;20017;-78
2022/06/07 22:45:48;;;;;;;1.75;0.85;;;;;;;18.14;82.68;100417.44;7383694;19;20884;-77
2022/06/07 22:48:15;;;;;;;4.82;1.10;;;;;;;18.16;83.39;100415.38;7383361;19;20010;-78
2022/06/07 22:50:43;;;;;;;3.70;1.00;;;;;;;18.19;83.52;100412.28;7383803;19;20134;-78
2022/06/07 22:53:16;;;;;;;3.13;0.60;;;;;;;18.21;82.88;100412.06;7386584;19;20017;-77
2022/06/07 22:55:54;;;;;;;4.80;0.50;;;;;;;18.20;82.46;100402.44;7380131;19;20014;-77
2022/06/07 22:58:40;;;;;;;3.83;1.50;;;;;;;18.22;82.18;100397.72;7386601;19;20018;-78
2022/06/07 23:01:16;;;;;;;7.68;0.80;;;;;;;18.16;82.02;100398.56;7388112;19;20010;-77
2022/06/07 23:03:47;;;;;;;1.45;0.63;;;;;;;18.14;82.85;100390.78;7386818;19;20026;-79
2022/06/07 23:06:21;;;;;;;3.85;0.70;;;;;;;18.14;83.39;100387.31;7385234;19;20062;-77
2022/06/07 23:09:27;;;;;;;4.60;0.80;;;;;;;18.13;84.00;100391.84;7382988;19;20016;-78
2022/06/07 23:11:54;;;;;;;2.53;0.52;;;;;;;18.12;82.97;100387.53;7384221;19;20077;-77
2022/06/07 23:17:19;;;;;;;3.92;0.60;;;;;;;18.09;82.61;100387.13;7388270;19;20015;-77
2022/06/07 23:19:58;;;;;;;3.08;0.95;;;;;;;18.10;83.75;100383.44;7388602;19;20331;-78
2022/06/07 23:22:31;;;;;;;2.60;0.75;;;;;;;18.03;83.71;100380.81;7385698;19;20094;-76
2022/06/07 23:24:58;;;;;;;5.25;1.20;;;;;;;18.01;84.88;100380.22;7387852;19;20480;-76
2022/06/07 23:27:27;;;;;;;1.25;0.55;;;;;;;18.04;84.81;100378.97;7385550;19;20468;-76
2022/06/07 23:29:55;;;;;;;2.65;0.70;;;;;;;18.04;84.13;100374.47;7381682;19;20025;-77
2022/06/07 23:32:22;;;;;;;3.40;0.85;;;;;;;17.99;84.82;100371.63;7380488;19;20514;-77
2022/06/07 23:34:50;;;;;;;4.45;2.20;;;;;;;17.96;84.10;100366.72;7376453;19;20248;-78
2022/06/07 23:37:19;;;;;;;4.18;0.90;;;;;;;17.94;85.46;100355.47;7382810;19;20017;-78
2022/06/07 23:39:46;;;;;;;4.93;1.00;;;;;;;17.92;85.86;100346.88;7384015;19;20034;-78
2022/06/07 23:42:15;;;;;;;4.50;0.60;;;;;;;17.93;85.26;100344.00;7380378;19;20002;-78
2022/06/07 23:44:42;;;;;;;3.42;0.70;;;;;;;17.93;85.23;100340.50;7384600;19;20090;-76
2022/06/07 23:47:18;;;;;;;2.38;0.60;;;;;;;17.92;84.79;100338.91;7386362;19;20131;-78
2022/06/07 23:49:52;;;;;;;5.15;1.20;;;;;;;17.94;86.40;100332.31;7388933;19;20014;-76
2022/06/07 23:52:26;;;;;;;3.55;0.90;;;;;;;17.92;85.51;100339.72;7388286;19;20463;-76
2022/06/07 23:54:57;;;;;;;2.28;0.57;;;;;;;17.91;85.51;100327.44;7387962;19;20019;-77
2022/06/07 23:57:24;;;;;;;1.08;0.50;;;;;;;17.93;85.17;100328.03;7388226;19;20018;-77
2022/06/07 23:59:56;;;;;;;3.75;0.80;;;;;;;17.93;85.20;100321.88;7388399;19;20016;-77
